Terminal Aerodrome Forecast
Issued by NWS Shreveport, LA

Home | Current Version | Previous Version | Text Only | Print | Product List | Glossary On
Versions: 1 2 3 4 5 6 7 8 9 10 11 12 13 14 15
000
FTUS44 KSHV 261735
TAFMLU
TAF
KMLU 261735Z 2618/2718 18009KT P6SM BKN035
     FM262300 18009KT P6SM VCTS BKN050CB
     FM270500 17006KT P6SM SCT030 OVC080
     FM271100 15005KT P6SM BKN015
     FM271600 17011KT P6SM SCT025 BKN040=

USA.gov is the U.S. government's official web portal to all federal, state and local government web resources and services.